• Join FlightAware (Why Join?)
  • Login
  • US Flag 
07:32PM EDT


 

Airport Tracker/Info


-or-


 

Live Flight TrackerFlight Track Log ✈ UAL1206 ✈ 18-May-2013 ✈ KLAX - MMSD / SJD

Flight Track Log - Related Links

Times and Time Zones

All times are in EDT time to prevent confusion due to time zone crossing. See the UAL1206 flight status page for this flight to view local times or setup timezone preferences in your user account.

Time Position Orientation Groundspeed Altitude Reporting Facility
EDT Latitude Longitude Course Direction KTS MPH feet Rate Location/Type
11:41AM 33.9340 -118.4370 262° West 179 206 1,300  Level FlightAware
11:42AM 33.9230 -118.4640 244° Southwest 220 253 2,000 2,220 Climbing FlightAware
11:42AM 33.9130 -118.4800 233° Southwest 228 262 2,800 2,880 Climbing FlightAware
11:43AM 33.8920 -118.5100 230° Southwest 252 290 4,200 2,700 Climbing FlightAware
11:43AM 33.8620 -118.5240 201° Southwest 283 326 5,300 1,980 Climbing FlightAware
11:43AM 33.8490 -118.5240 180° South 288 331 5,700 3,060 Climbing FlightAware
11:44AM 33.8010 -118.5220 178° South 301 346 7,600 3,780 Climbing FlightAware
11:44AM 33.7640 -118.5210 179° South 302 348 9,200 2,820 Climbing FlightAware
11:45AM 33.7030 -118.5150 175° South 336 387 10,900 2,400 Climbing FlightAware
11:45AM 33.6890 -118.5060 152° Southeast 349 402 11,200 2,160 Climbing FlightAware
11:45AM 33.6710 -118.4830 133° Southeast 359 413 11,800 2,460 Climbing FlightAware
11:46AM 33.6220 -118.4130 130° Southeast 379 436 13,700 2,580 Climbing FlightAware
11:47AM 33.5760 -118.3480 130° Southeast 387 445 15,500 2,400 Climbing FlightAware
11:48AM 33.5200 -118.2720 131° Southeast 406 467 17,100 2,220 Climbing FlightAware
11:48AM 33.4710 -118.2040 131° Southeast 413 475 18,700 2,460 Climbing FlightAware
11:49AM 33.4190 -118.1330 131° Southeast 419 482 20,400 2,220 Climbing FlightAware
11:50AM 33.3640 -118.0570 131° Southeast 430 495 21,900 2,040 Climbing FlightAware
11:50AM 33.3100 -117.9840 132° Southeast 437 503 23,300 2,100 Climbing FlightAware
11:51AM 33.2470 -117.8980 131° Southeast 445 512 24,900 1,920 Climbing FlightAware
11:52AM 33.1940 -117.8260 131° Southeast 452 520 26,100 1,620 Climbing FlightAware
11:52AM 33.1310 -117.7420 132° Southeast 462 532 27,200 1,440 Climbing FlightAware
11:53AM 33.0750 -117.6650 131° Southeast 470 541 28,200 1,500 Climbing FlightAware
11:54AM 33.0160 -117.5860 132° Southeast 476 548 29,200 1,440 Climbing FlightAware
11:55AM 32.9500 -117.4980 132° Southeast 483 556 30,300 1,320 Climbing FlightAware
11:55AM 32.8900 -117.4170 131° Southeast 490 564 31,100 1,080 Climbing FlightAware
11:56AM 32.8300 -117.3370 132° Southeast 496 571 31,800 1,260 Climbing FlightAware
11:57AM 32.7620 -117.2460 132° Southeast 497 572 32,900 1,320 Climbing FlightAware
11:57AM 32.7010 -117.1650 132° Southeast 499 574 33,700 1,080 Climbing FlightAware
11:58AM 32.6320 -117.0740 132° Southeast 502 578 34,500 1,020 Climbing FlightAware
11:59AM 32.5680 -116.9890 132° Southeast 504 580 35,200 1,020 Climbing FlightAware
11:59AM 32.4900 -116.9040 137° Southeast 507 583 36,000 960 Climbing FlightAware
12:00PM 32.4230 -116.8400 141° Southeast 506 582 36,600 720 Climbing FlightAware
12:01PM 32.3450 -116.7650 141° Southeast 506 582 37,000 300 Climbing FlightAware
12:01PM 32.2720 -116.6950 141° Southeast 505 581 37,000  Level FlightAware
12:02PM 32.1970 -116.6230 141° Southeast 503 579 37,000  Level FlightAware
12:03PM 32.1370 -116.5660 141° Southeast 503 579 37,000  Level FlightAware
12:04PM 32.0600 -116.4920 141° Southeast 503 579 37,000  Level FlightAware
12:04PM 31.9980 -116.4340 142° Southeast 503 579 37,000  Level FlightAware
12:05PM 31.9370 -116.3750 141° Southeast 503 579 37,000  Level FlightAware
12:06PM 31.8750 -116.3160 141° Southeast 503 579 37,000  Level FlightAware
12:06PM 31.7980 -116.2430 141° Southeast 503 579 37,000  Level FlightAware
12:07PM 31.7370 -116.1840 141° Southeast 503 579 37,000  Level FlightAware
12:08PM 31.6750 -116.1260 141° Southeast 503 579 37,000  Level FlightAware
12:08PM 31.6140 -116.0670 141° Southeast 503 579 37,000  Level FlightAware
12:09PM 31.5520 -116.0090 141° Southeast 503 579 37,000  Level FlightAware
12:10PM 31.4750 -115.9360 141° Southeast 503 579 37,000  Level FlightAware
12:11PM 31.4140 -115.8780 141° Southeast 503 579 37,000  Level FlightAware
12:11PM 31.3520 -115.8190 141° Southeast 503 579 37,000  Level FlightAware
12:12PM 31.2910 -115.7610 141° Southeast 503 579 37,000  Level FlightAware
12:15PM 31.0201 -115.5336 144° Southeast  Level FlightAware Approximate
12:16PM 30.9138 -115.4448 144° Southeast  Level FlightAware Approximate
12:17PM 30.8074 -115.3562 144° Southeast  Level FlightAware Approximate
12:18PM 30.7051 -115.2613 141° Southeast  Level FlightAware Approximate
12:19PM 30.6031 -115.1661 141° Southeast  Level FlightAware Approximate
12:20PM 30.5011 -115.0711 141° Southeast  Level FlightAware Approximate
12:21PM 30.3989 -114.9764 141° Southeast  Level FlightAware Approximate
12:22PM 30.2967 -114.8818 141° Southeast  Level FlightAware Approximate
12:23PM 30.1945 -114.7875 141° Southeast  Level FlightAware Approximate
12:24PM 30.0921 -114.6933 141° Southeast  Level FlightAware Approximate
12:25PM 29.9897 -114.5993 142° Southeast  Level FlightAware Approximate
12:26PM 29.8873 -114.5055 142° Southeast  Level FlightAware Approximate
12:26PM 29.6290 -114.2590 142° Southeast 484 557 37,000  Level FlightAware
12:27PM 29.5600 -114.1980 142° Southeast 481 554 37,000  Level FlightAware
12:27PM 29.4820 -114.1280 142° Southeast 481 554 37,000  Level FlightAware
12:28PM 29.4230 -114.0750 142° Southeast 481 554 37,000  Level FlightAware
12:29PM 29.3250 -113.9900 143° Southeast 471 542 37,000  Level FlightAware
12:29PM 29.2710 -113.9410 142° Southeast 471 542 37,000  Level FlightAware
12:30PM 29.1980 -113.8760 142° Southeast 471 542 37,000  Level FlightAware
12:31PM 29.1250 -113.8120 143° Southeast 466 536 37,000  Level FlightAware
12:31PM 29.0670 -113.7610 142° Southeast 466 536 37,000  Level FlightAware
12:32PM 28.9650 -113.6740 143° Southeast 463 533 37,000  Level FlightAware
12:33PM 28.9050 -113.6200 142° Southeast 464 534 37,000  Level FlightAware
12:34PM 28.8250 -113.5510 143° Southeast 463 533 37,000  Level FlightAware
12:34PM 28.7550 -113.4910 143° Southeast 465 535 37,000  Level FlightAware
12:35PM 28.6680 -113.4130 142° Southeast 466 536 37,000  Level FlightAware
12:36PM 28.6100 -113.3620 142° Southeast 466 536 37,000  Level FlightAware
12:37PM 28.5140 -113.2810 143° Southeast 465 535 37,000  Level FlightAware
12:37PM 28.4540 -113.2300 143° Southeast 463 533 37,000  Level FlightAware
12:38PM 28.3690 -113.1560 143° Southeast 462 532 37,000  Level FlightAware
12:39PM 28.2910 -113.0890 143° Southeast 459 528 37,000  Level FlightAware
12:40PM 28.2250 -113.0320 143° Southeast 457 526 37,000  Level FlightAware
12:40PM 28.1570 -112.9740 143° Southeast 455 524 37,000  Level FlightAware
12:41PM 28.0950 -112.9200 142° Southeast 453 521 37,000  Level FlightAware
12:42PM 28.0200 -112.8560 143° Southeast 453 521 37,000  Level FlightAware
12:42PM 27.9370 -112.7860 143° Southeast 451 519 37,000  Level FlightAware
12:43PM 27.8710 -112.7290 143° Southeast 451 519 37,000  Level FlightAware
12:44PM 27.8070 -112.6750 143° Southeast 451 519 37,000  Level FlightAware
12:44PM 27.7420 -112.6200 143° Southeast 451 519 37,000  Level FlightAware
12:45PM 27.6640 -112.5540 143° Southeast 451 519 37,000  Level FlightAware
12:46PM 27.5980 -112.4980 143° Southeast 451 519 37,000  Level FlightAware
12:47PM 27.5210 -112.4330 143° Southeast 452 520 37,000  Level FlightAware
12:47PM 27.4530 -112.3760 143° Southeast 455 524 37,000  Level FlightAware
12:48PM 27.3880 -112.3210 143° Southeast 455 524 37,000  Level FlightAware
12:49PM 27.3110 -112.2580 144° Southeast 454 522 37,000  Level FlightAware
12:49PM 27.2380 -112.2080 149° Southeast 454 522 37,000  Level FlightAware
12:50PM 27.1590 -112.1530 148° Southeast 454 522 37,000  Level FlightAware
12:51PM 27.0840 -112.1020 149° Southeast 453 521 37,000  Level FlightAware
12:51PM 27.0060 -112.0480 148° Southeast 452 520 37,000  Level FlightAware
12:52PM 26.9430 -112.0050 149° Southeast 452 520 37,000  Level FlightAware
12:53PM 26.8750 -111.9570 148° Southeast 451 519 37,000  Level FlightAware
12:54PM 26.7640 -111.8810 149° Southeast 449 517 37,000  Level FlightAware
12:54PM 26.6880 -111.8300 149° Southeast 449 517 37,000  Level FlightAware
12:55PM 26.6050 -111.7730 148° Southeast 448 516 37,000  Level FlightAware
12:56PM 26.5390 -111.7270 148° Southeast 449 517 37,000  Level FlightAware
12:57PM 26.4790 -111.6860 149° Southeast 449 517 37,000  Level FlightAware
12:57PM 26.4190 -111.6440 148° Southeast 449 517 37,000  Level FlightAware
12:58PM 26.3600 -111.6020 147° Southeast 449 517 37,000  Level FlightAware
12:59PM 26.2850 -111.5500 148° Southeast 449 517 37,000  Level FlightAware
12:59PM 26.2250 -111.5080 148° Southeast 449 517 37,000  Level FlightAware
01:00PM 26.1650 -111.4660 148° Southeast 449 517 37,000  Level FlightAware
01:01PM 26.1050 -111.4250 148° Southeast 449 517 37,000  Level FlightAware
01:01PM 26.0450 -111.3830 148° Southeast 449 517 37,000  Level FlightAware
01:02PM 25.9700 -111.3310 148° Southeast 449 517 37,000  Level FlightAware
01:03PM 25.9100 -111.2890 148° Southeast 449 517 37,000  Level FlightAware
01:04PM 25.8500 -111.2480 148° Southeast 449 517 37,000  Level FlightAware
01:04PM 25.7910 -111.2060 147° Southeast 449 517 37,000  Level FlightAware
01:05PM 25.7310 -111.1650 148° Southeast 449 517 37,000  Level FlightAware
01:08PM 25.5475 -110.8458 122° Southeast  Level FlightAware Approximate
01:08PM 25.2900 -110.7310 122° Southeast 447 514 37,000  Level FlightAware
01:09PM 25.2230 -110.6720 141° Southeast 446 513 37,000  Level FlightAware
01:10PM 25.1600 -110.6170 142° Southeast 446 513 37,000  Level FlightAware
01:10PM 25.0850 -110.5510 141° Southeast 446 513 37,000  Level FlightAware
01:11PM 25.0200 -110.4940 142° Southeast 446 513 37,000 -240 Level FlightAware
01:12PM 24.9560 -110.4380 142° Southeast 445 512 36,700 -720 Descending FlightAware
01:12PM 24.8860 -110.3760 141° Southeast 433 498 36,000 -1,020 Descending FlightAware
01:13PM 24.8250 -110.3230 142° Southeast 431 496 35,300 -1,020 Descending FlightAware
01:14PM 24.7590 -110.2650 141° Southeast 438 504 34,700 -1,500 Descending FlightAware
01:15PM 24.6880 -110.2030 142° Southeast 442 509 33,200 -2,340 Descending FlightAware
01:15PM 24.6250 -110.1490 142° Southeast 446 513 31,400 -2,700 Descending FlightAware
01:16PM 24.5490 -110.0830 142° Southeast 446 513 29,400 -2,520 Descending FlightAware
01:17PM 24.4870 -110.0280 141° Southeast 437 503 27,900 -2,280 Descending FlightAware
01:17PM 24.4150 -109.9670 142° Southeast 427 491 26,200 -2,280 Descending FlightAware
01:18PM 24.3520 -109.9120 141° Southeast 419 482 24,700 -2,220 Descending FlightAware
01:19PM 24.2930 -109.8610 142° Southeast 410 472 23,300 -2,160 Descending FlightAware
01:19PM 24.2270 -109.8040 142° Southeast 400 460 21,700 -2,100 Descending FlightAware
01:20PM 24.1700 -109.7550 142° Southeast 391 450 20,400 -2,100 Descending FlightAware
01:21PM 24.1050 -109.6990 142° Southeast 381 438 18,800 -2,040 Descending FlightAware
01:21PM 24.0600 -109.6600 142° Southeast 378 435 17,700 -840 Descending FlightAware
01:22PM 24.0060 -109.6120 141° Southeast 378 435 17,700  Level FlightAware
01:23PM 23.9600 -109.5710 141° Southeast 378 435 17,700 -3,120 Level FlightAware
01:24PM 23.8750 -109.5370 160° South 337 388 13,300 -3,180 Descending FlightAware
01:24PM 23.8140 -109.5530 193° South 334 384 13,000 -240 Descending FlightAware
01:25PM 23.7630 -109.5660 193° South 334 384 13,000  Level FlightAware
01:26PM 23.7120 -109.5780 192° South 334 384 13,000  Level FlightAware
01:28PM 23.4831 -109.6301 190° South  Level FlightAware Approximate
01:29PM 23.3564 -109.6590 197° South  Level FlightAware Approximate
01:30PM 23.2323 -109.6937 200° South  Level FlightAware Approximate
01:31PM 23.1518 -109.7210 190° South  Level Estimated
01:32PM 23.1518 -109.7210 190° South  Level Estimated
01:33PM 23.1518 -109.7210 190° South  Level Estimated
01:34PM 23.1518 -109.7210 190° South  Level Estimated
01:35PM 23.1518 -109.7210 190° South  Level Estimated
01:36PM 23.1518 -109.7210 190° South  Level Estimated
01:37PM 23.1518 -109.7210 190° South  Level Estimated